Flight Track Log - Related Links

Times and Time Zones

All times are in EDT time to prevent confusion due to time zone crossing. See the PWA138 flight status page for this flight to view local times or setup timezone preferences in your user account.

Time Position Orientation Groundspeed Altitude Reporting Facility
EDT Latitude Longitude Course Direction KTS MPH feet Rate Location/Type
Sun 11:19:49 AM 42.1217 -87.8692 191° South 172 198 1,700  Level Chicago Center
Sun 11:20:50 AM 42.1608 -87.8381 30° Northeast 165 190 2,600 1,122 Climbing Chicago Center
Sun 11:21:52 AM 42.2017 -87.7978 36° Northeast 165 190 4,000 683 Climbing Chicago Center
Sun 11:22:53 AM 42.2419 -87.7594 35° Northeast 174 200 4,000  Level Chicago Center
Sun 11:23:55 AM 42.2642 -87.7056 61° Northeast 183 211 4,000  Level Chicago Center
Sun 11:24:57 AM 42.2717 -87.6339 82° East 181 208 4,000  Level Chicago Center
Sun 11:25:00 AM 41.4298 -87.8634 191° South  Level FlightAware Approximate
Sun 11:25:58 AM 42.2797 -87.5697 80° East 179 206 4,000  Level Chicago Center
Sun 11:27:00 AM 42.2886 -87.5072 79° East 174 200 4,000  Level Chicago Center
Sun 11:28:02 AM 42.2697 -87.4686 123° Southeast 165 190 4,000  Level Chicago Center
Sun 11:29:04 AM 42.2656 -87.5361 265° West 181 208 4,000  Level Chicago Center
Sun 11:30:05 AM 42.2642 -87.6056 268° West 178 205 4,000  Level Chicago Center
Sun 11:31:07 AM 42.2631 -87.6689 269° West 174 200 4,000  Level Chicago Center
Sun 11:32:09 AM 42.2628 -87.7339 270° West 173 199 4,000  Level Chicago Center
Sun 11:33:10 AM 42.2633 -87.8033 271° West 173 199 4,000  Level Chicago Center
Sun 11:34:12 AM 42.2653 -87.8658 272° West 171 197 4,000 -629 Level Chicago Center
Sun 11:35:14 AM 42.2642 -87.9258 269° West 165 190 2,700 -823 Descending Chicago Center
Sun 11:36:16 AM 42.2331 -87.9556 215° Southwest 156 180 2,300 -390 Descending Chicago Center
Sun 11:37:17 AM 42.1922 -87.9422 166° South 154 177 1,900 -390 Descending Chicago Center
Sun 11:38:19 AM 42.1506 -87.9228 161° South 147 169 1,500 -435 Descending Chicago Center
Sun 11:39:21 AM 42.1150 -87.9039 158° South 143 165 1,000 242 Descending Chicago Center
Sun 11:40:23 AM 42.1147 -87.8647 91° East 170 196 2,000 532 Climbing Chicago Center
Sun 11:41:25 AM 42.1597 -87.8267 32° Northeast 176 203 2,100 537 Climbing Chicago Center
Sun 11:42:26 AM 42.2011 -87.7858 36° Northeast 182 209 3,100 829 Climbing Chicago Center
Sun 11:43:28 AM 42.2539 -87.7803 North 192 221 3,800 435 Climbing Chicago Center
Sun 11:44:30 AM 42.3083 -87.7797 360° North 182 209 4,000 97 Climbing Chicago Center
Sun 11:45:32 AM 42.3536 -87.7825 357° North 182 209 4,000  Level Chicago Center
Sun 11:46:33 AM 42.3794 -87.8372 303° West 178 205 4,000  Level Chicago Center
Sun 11:47:35 AM 42.4008 -87.9047 293° West 167 192 4,000  Level Chicago Center
Sun 11:48:37 AM 42.4011 -87.9669 270° West 169 194 4,000  Level Chicago Center
Sun 11:49:38 AM 42.3736 -87.9931 215° Southwest 159 183 4,000  Level Chicago Center
Sun 11:50:40 AM 42.3314 -87.9861 173° South 155 178 4,000  Level Chicago Center
Sun 11:51:42 AM 42.3119 -87.9411 120° Southeast 176 203 4,000  Level Chicago Center
Sun 11:52:43 AM 42.3183 -87.8700 83° East 181 208 4,000  Level Chicago Center
Sun 11:53:45 AM 42.3250 -87.8092 82° East 177 204 4,000  Level Chicago Center
Sun 11:54:47 AM 42.3350 -87.7344 80° East 176 203 4,000  Level Chicago Center
Sun 11:55:48 AM 42.3431 -87.6667 81° East 181 208 4,000  Level Chicago Center
Sun 11:56:50 AM 42.3650 -87.6247 55° Northeast 181 208 4,000  Level Chicago Center
Sun 11:57:52 AM 42.4081 -87.6592 329° Northwest 184 212 4,000  Level Chicago Center
Sun 12:00:15 PM 42.4000 -87.8000 266° West 166 191 4,000  Level Chicago TRACON
Sun 12:00:57 PM 42.4064 -87.8397 282° West 168 193 4,000  Level Chicago Center
Sun 12:01:59 PM 42.4061 -87.9131 270° West 166 191 4,000  Level Chicago Center
Sun 12:03:01 PM 42.3875 -87.9578 241° Southwest 166 191 4,000  Level Chicago Center
Sun 12:04:02 PM 42.3442 -87.9528 175° South 162 186 4,000  Level Chicago Center
Sun 12:05:04 PM 42.3178 -87.9169 135° Southeast 176 203 4,000  Level Chicago Center
Sun 12:06:06 PM 42.3239 -87.8456 83° East 192 221 4,000  Level Chicago Center
Sun 12:07:08 PM 42.3311 -87.7811 81° East 188 216 4,000  Level Chicago Center
Sun 12:08:10 PM 42.3406 -87.7169 79° East 182 209 4,000  Level Chicago Center
Sun 12:09:11 PM 42.3519 -87.6403 79° East 178 205 4,000  Level Chicago Center
Sun 12:11:28 PM 42.4167 -87.5833 33° Northeast 187 215 4,000 -94 Level Chicago TRACON
Sun 12:12:22 PM 42.4333 -87.6500 289° West 176 203 3,700 -556 Descending Chicago TRACON
Sun 12:13:16 PM 42.4500 -87.7000 294° West 175 201 3,000 -667 Descending Chicago TRACON
Sun 12:14:28 PM 42.4667 -87.7500 294° West 145 167 2,300 -636 Descending Chicago TRACON
Sun 12:15:28 PM 42.4667 -87.8167 270° West 148 170 1,600 -579 Descending Chicago TRACON
Sun 12:16:22 PM 42.4333 -87.8500 216° Southwest 151 174 1,200  Descending Chicago TRACON
Sun 12:17:23 PM 42.4000 -87.8667 200° South 154 177 1,600 425 Climbing Chicago TRACON
Sun 12:18:29 PM 42.4000 -87.8000 90° East 191 220 2,100 150 Climbing Chicago TRACON
Sun 12:19:23 PM 42.4333 -87.7833 20° North 194 223 1,900 -476 Descending Chicago TRACON
Sun 12:20:35 PM 42.4333 -87.8333 270° West 133 153 1,100 -400 Descending Chicago TRACON
Sun 12:21:23 PM 42.4167 -87.8667 236° Southwest 136 157 1,100 1,000 Level Chicago TRACON
Sun 12:22:29 PM 42.3833 -87.8833 200° South 189 217 3,000 1,150 Climbing Chicago TRACON
Sun 12:23:23 PM 42.3333 -87.9333 216° Southwest 214 246 3,400 526 Climbing Chicago TRACON
Sun 12:24:23 PM 42.3000 -87.8667 124° Southeast 230 265 4,000 316 Climbing Chicago TRACON
Sun 12:25:17 PM 42.3000 -87.8000 90° East 213 245 4,000  Level Chicago TRACON
Sun 12:26:17 PM 42.3000 -87.7000 90° East 235 270 4,000  Level Chicago TRACON
Sun 12:27:23 PM 42.3167 -87.6000 77° East 252 290 4,000  Level Chicago TRACON
Sun 12:28:30 PM 42.3333 -87.5167 75° East 239 275 4,000  Level Chicago TRACON
Sun 12:29:12 PM 42.3667 -87.5333 340° North 244 281 4,000  Level Chicago TRACON
Sun 12:30:06 PM 42.4167 -87.6000 315° West 246 283 4,000  Level Chicago TRACON
Sun 12:31:16 PM 42.4078 -87.6981 263° West 226 260 4,000  Level Chicago Center
Sun 12:32:19 PM 42.4542 -87.7342 330° Northwest 240 276 4,000  Level Chicago Center
Sun 12:33:21 PM 42.5203 -87.7372 358° North 240 276 4,000  Level Chicago Center
Sun 12:34:23 PM 42.5978 -87.7436 357° North 237 273 4,000  Level Chicago Center
Sun 12:35:25 PM 42.6639 -87.7481 357° North 237 273 4,000  Level Chicago Center
Sun 12:36:27 PM 42.7294 -87.7483 360° North 237 273 4,000  Level Chicago Center
Sun 12:37:29 PM 42.7647 -87.6725 58° Northeast 237 273 4,000  Level Chicago Center
Sun 12:38:31 PM 42.7908 -87.6092 61° Northeast 204 235 4,000  Level Chicago Center
Sun 12:39:33 PM 42.8219 -87.5303 62° Northeast 198 228 4,000  Level Chicago Center
Sun 12:40:35 PM 42.8083 -87.4819 111° Southeast 189 217 4,000  Level Chicago Center
Sun 12:41:37 PM 42.7619 -87.5125 206° Southwest 183 211 4,000  Level Chicago Center
Sun 12:42:40 PM 42.7194 -87.5422 207° Southwest 176 203 4,000  Level Chicago Center
Sun 12:43:42 PM 42.7147 -87.6128 265° West 190 219 4,000  Level Chicago Center
Sun 12:44:44 PM 42.7175 -87.6817 273° West 188 216 4,000  Level Chicago Center
Sun 12:45:46 PM 42.7825 -87.7097 342° North 208 239 4,000 48 Level Chicago Center
Sun 12:46:48 PM 42.8347 -87.6950 12° North 218 251 4,100  Climbing Chicago Center
Sun 12:47:50 PM 42.8425 -87.6167 82° East 213 245 4,000 -48 Descending Chicago Center
Sun 12:48:52 PM 42.8525 -87.5356 80° East 213 245 4,000  Level Chicago Center
Sun 12:49:54 PM 42.8669 -87.4597 75° East 219 252 4,000  Level Chicago Center
Sun 12:50:56 PM 42.9028 -87.4983 322° Northwest 206 237 4,000  Level Chicago Center
Sun 12:51:58 PM 42.9019 -87.5858 269° West 194 223 4,000  Level Chicago Center
Sun 12:53:00 PM 42.9033 -87.6544 272° West 189 217 4,000  Level Chicago Center
Sun 12:54:03 PM 42.9033 -87.7247 270° West 188 216 4,000 48 Level Chicago Center
Sun 12:55:05 PM 42.8781 -87.7189 170° South 190 219 4,100 48 Climbing Chicago Center
Sun 12:56:07 PM 42.8842 -87.6517 83° East 181 208 4,100 -48 Level Chicago Center
Sun 12:57:09 PM 42.8922 -87.5856 81° East 180 207 4,000 -48 Descending Chicago Center
Sun 12:58:11 PM 42.9036 -87.5072 79° East 179 206 4,000  Level Chicago Center
Sun 12:59:14 PM 42.9111 -87.4414 81° East 177 204 4,000  Level Chicago Center
Sun 01:00:16 PM 42.8856 -87.4700 219° Southwest 163 188 4,000  Level Chicago Center
Sun 01:01:18 PM 42.8856 -87.5414 270° West 181 208 4,000  Level Chicago Center
Sun 01:02:20 PM 42.8806 -87.6181 265° West 196 226 4,000  Level Chicago Center
Sun 01:03:22 PM 42.8825 -87.7089 272° West 198 228 4,000  Level Chicago Center
Sun 01:04:24 PM 42.8744 -87.7786 261° West 203 234 4,000  Level Chicago Center
Sun 01:05:26 PM 42.8464 -87.7397 135° Southeast 202 232 4,000  Level Chicago Center
Sun 01:06:28 PM 42.8547 -87.6597 82° East 207 238 4,000  Level Chicago Center
Sun 01:07:30 PM 42.8636 -87.5850 81° East 205 236 4,000  Level Chicago Center
Sun 01:08:32 PM 42.8722 -87.5061 82° East 205 236 4,000  Level Chicago Center
Sun 01:09:34 PM 42.9144 -87.4550 42° Northeast 224 258 4,000  Level Chicago Center
Sun 01:10:36 PM 42.9603 -87.4986 325° Northwest 208 239 4,000 -677 Level Chicago Center
Sun 01:11:38 PM 42.9831 -87.5661 295° West 195 224 2,600 -726 Descending Chicago Center
Sun 01:12:40 PM 42.9819 -87.6203 268° West 161 185 2,500 -48 Descending Chicago Center
Sun 01:13:42 PM 42.9831 -87.6639 272° West 133 153 2,500 48 Level Chicago Center
Sun 01:14:44 PM 42.9847 -87.7083 273° West 123 142 2,600  Climbing Chicago Center
Sun 01:15:46 PM 42.9803 -87.7606 263° West 119 137 2,500 -242 Descending Chicago Center
Sun 01:16:48 PM 42.9683 -87.8019 248° West 119 137 2,100 -339 Descending Chicago Center
Sun 01:17:50 PM 42.9569 -87.8431 249° West 116 133 1,800 -290 Descending Chicago Center

Login

Don't have an account? Register now (free) for customized features, flight alerts, and more!